Time;durP1;ratioP1;P1;durP2;ratioP2;P2;SDS_P1;SDS_P2;PMS_P1;PMS_P2;Temp;Humidity;BMP_temperature;BMP_pressure;BME280_temperature;BME280_humidity;BME280_pressure;Samples;Min_cycle;Max_cycle;Signal;HPM_P1;HPM_P2
2021/11/12 00:14:26;;;;;;;63.95;33.95;;;;;;;4.40;83.85;97210.80;1774488;79;21003;-78
2021/11/12 00:16:57;;;;;;;48.75;31.50;;;;;;;4.41;83.91;97216.29;1771291;79;20983;-78
2021/11/12 00:19:20;;;;;;;49.88;32.65;;;;;;;4.43;84.06;97216.98;1757434;80;21332;-78
2021/11/12 00:21:47;;;;;;;44.18;28.85;;;;;;;4.46;84.06;97220.59;1760637;79;21003;-78
2021/11/12 00:24:12;;;;;;;47.70;29.37;;;;;;;4.51;84.06;97220.55;1770662;79;21373;-78
2021/11/12 00:26:39;;;;;;;48.55;29.23;;;;;;;4.50;84.06;97218.11;1781292;79;20994;-78
2021/11/12 00:29:07;;;;;;;46.48;29.92;;;;;;;4.46;84.07;97214.97;1792293;80;21386;-78
2021/11/12 00:37:11;;;;;;;49.60;30.23;;;;;;;4.50;84.17;97219.39;1702650;80;22246;-78
2021/11/12 00:39:39;;;;;;;57.78;35.08;;;;;;;4.53;84.08;97216.56;1784487;79;21419;-78
2021/11/12 00:42:13;;;;;;;44.83;27.98;;;;;;;4.52;84.10;97217.51;1761742;80;21030;-78
2021/11/12 00:45:19;;;;;;;57.25;31.87;;;;;;;4.52;84.16;97222.66;1768079;80;21327;-78
2021/11/12 00:47:17;;;;;;;43.13;27.62;;;;;;;4.51;84.17;97223.12;1754285;80;21288;-78
2021/11/12 00:49:38;;;;;;;46.95;29.82;;;;;;;4.56;84.02;97215.53;1769626;80;21022;-78
2021/11/12 00:52:11;;;;;;;71.87;37.67;;;;;;;4.56;83.91;97217.63;1770739;80;21015;-78
2021/11/12 00:54:35;;;;;;;49.40;29.80;;;;;;;4.63;83.98;97215.37;1759929;80;21015;-78
2021/11/12 00:57:01;;;;;;;47.70;30.43;;;;;;;4.66;83.97;97220.27;1725690;80;21346;-78
2021/11/12 00:59:27;;;;;;;50.25;29.72;;;;;;;4.66;83.90;97221.55;1771533;80;21010;-78
2021/11/12 01:01:53;;;;;;;56.28;33.08;;;;;;;4.65;83.89;97218.63;1773826;80;20995;-78
2021/11/12 01:04:20;;;;;;;49.20;29.42;;;;;;;4.62;83.86;97224.84;1770210;80;21061;-78
2021/11/12 01:06:46;;;;;;;45.03;28.10;;;;;;;4.64;83.92;97217.00;1754798;81;20959;-78
2021/11/12 01:09:15;;;;;;;46.48;27.95;;;;;;;4.65;83.78;97216.88;1757127;81;21401;-78
2021/11/12 01:11:42;;;;;;;56.10;31.62;;;;;;;4.65;83.79;97222.02;1747404;81;21014;-78
2021/11/12 01:14:09;;;;;;;45.00;29.00;;;;;;;4.65;83.74;97216.88;1753379;81;21373;-78
2021/11/12 01:16:35;;;;;;;48.95;29.72;;;;;;;4.68;83.74;97215.33;1757358;80;20973;-78
2021/11/12 01:19:04;;;;;;;46.70;30.32;;;;;;;4.69;83.76;97214.86;1758496;81;21465;-78
2021/11/12 01:21:29;;;;;;;42.05;26.82;;;;;;;4.71;83.79;97219.41;1745759;81;20967;-78
2021/11/12 01:23:55;;;;;;;54.23;34.85;;;;;;;4.69;83.89;97218.25;1764639;81;21437;-78
2021/11/12 01:26:22;;;;;;;56.48;35.13;;;;;;;4.70;83.79;97219.06;1750426;81;21045;-78
2021/11/12 01:28:48;;;;;;;65.45;39.05;;;;;;;4.73;83.81;97222.23;1751752;81;21455;-78
2021/11/12 01:31:14;;;;;;;45.12;28.95;;;;;;;4.79;83.79;97211.42;1755999;81;20999;-78
2021/11/12 01:33:41;;;;;;;54.00;32.33;;;;;;;4.83;83.64;97214.55;1767005;81;21081;-78
2021/11/12 01:38:54;;;;;;;46.13;30.30;;;;;;;4.81;83.55;97205.67;1756116;81;21010;-78
2021/11/12 01:41:20;;;;;;;56.23;33.83;;;;;;;4.76;83.57;97201.38;1759700;81;20979;-78
2021/11/12 01:43:48;;;;;;;69.65;39.25;;;;;;;4.80;83.85;97203.22;1753540;81;21018;-78
2021/11/12 02:01:35;;;;;;;48.63;29.35;;;;;;;4.90;83.37;97198.15;1765658;81;20990;-78
2021/11/12 02:04:01;;;;;;;51.95;30.50;;;;;;;4.83;83.32;97197.34;1755234;81;20989;-78
2021/11/12 02:06:27;;;;;;;55.60;36.05;;;;;;;4.84;83.37;97205.88;1763706;81;20939;-78
2021/11/12 02:08:53;;;;;;;70.03;39.08;;;;;;;4.91;83.49;97197.20;1751903;81;21071;-78
2021/11/12 02:11:20;;;;;;;56.58;34.67;;;;;;;4.92;83.26;97198.36;1734694;82;21055;-78
2021/11/12 02:13:48;;;;;;;50.20;32.15;;;;;;;4.94;83.25;97191.80;1708952;82;21111;-78
2021/11/12 02:16:19;;;;;;;49.70;30.75;;;;;;;4.98;83.26;97189.30;1740152;82;22244;-78
2021/11/12 02:18:44;;;;;;;47.27;31.17;;;;;;;4.96;83.08;97181.70;1709927;83;21055;-78
2021/11/12 02:23:48;;;;;;;54.70;34.60;;;;;;;4.98;83.28;97178.53;1739696;80;21032;-78
2021/11/12 02:26:11;;;;;;;52.93;34.78;;;;;;;5.06;83.30;97176.62;1747168;80;20960;-78
2021/11/12 02:28:38;;;;;;;49.08;31.40;;;;;;;5.09;83.08;97173.31;1744291;80;20990;-78
2021/11/12 02:31:02;;;;;;;49.25;33.58;;;;;;;5.15;83.00;97177.12;1740335;80;21031;-78
2021/11/12 02:33:28;;;;;;;45.83;32.35;;;;;;;5.24;82.94;97180.23;1732127;80;20944;-78
2021/11/12 02:36:05;;;;;;;48.20;31.60;;;;;;;5.30;82.76;97178.88;1749047;80;21035;-78
2021/11/12 02:38:32;;;;;;;48.75;31.40;;;;;;;5.32;82.71;97184.25;1721938;82;21386;-78
2021/11/12 02:40:58;;;;;;;45.63;30.80;;;;;;;5.34;82.68;97176.38;1728808;82;21066;-78
2021/11/12 02:43:24;;;;;;;50.12;30.65;;;;;;;5.33;82.53;97172.99;1741060;80;20985;-79
2021/11/12 02:45:50;;;;;;;50.48;29.72;;;;;;;5.35;82.39;97180.12;1737607;80;21493;-78
2021/11/12 02:48:17;;;;;;;52.43;31.87;;;;;;;5.38;82.33;97172.16;1753133;80;21036;-78
2021/11/12 02:50:43;;;;;;;41.73;28.38;;;;;;;5.39;82.33;97169.91;1735590;80;20961;-78
2021/11/12 02:53:14;;;;;;;47.93;30.75;;;;;;;5.35;81.79;97162.55;1745207;80;21028;-79
2021/11/12 02:55:40;;;;;;;45.98;29.95;;;;;;;5.36;81.83;97161.61;1755366;80;21075;-78
2021/11/12 02:58:06;;;;;;;44.40;28.70;;;;;;;5.33;81.89;97158.82;1713966;82;21959;-78
2021/11/12 03:00:33;;;;;;;44.60;28.85;;;;;;;5.31;82.09;97164.58;1742822;82;20990;-78
2021/11/12 03:02:59;;;;;;;45.73;29.02;;;;;;;5.31;82.18;97155.56;1747942;82;21424;-78
2021/11/12 03:05:25;;;;;;;42.30;28.17;;;;;;;5.31;81.99;97163.29;1754669;80;20933;-78
2021/11/12 03:07:51;;;;;;;47.00;30.10;;;;;;;5.32;82.09;97162.81;1737036;80;21078;-78
2021/11/12 03:10:18;;;;;;;44.60;28.17;;;;;;;5.40;82.17;97163.00;1748549;80;21487;-78
2021/11/12 03:12:44;;;;;;;44.63;29.40;;;;;;;5.42;82.12;97156.77;1739146;82;20943;-78
2021/11/12 03:15:10;;;;;;;41.68;28.17;;;;;;;5.42;82.00;97157.23;1723099;82;20959;-78
2021/11/12 03:17:37;;;;;;;45.50;28.55;;;;;;;5.34;81.96;97154.00;1703490;83;21372;-78
2021/11/12 03:20:05;;;;;;;45.55;29.52;;;;;;;5.30;82.08;97153.93;1717294;82;20972;-78
2021/11/12 03:22:38;;;;;;;40.73;28.73;;;;;;;5.28;81.91;97153.72;1731658;82;20999;-78
2021/11/12 03:25:05;;;;;;;43.95;27.93;;;;;;;5.25;82.04;97153.98;1731559;82;21369;-78
2021/11/12 03:27:32;;;;;;;45.90;30.43;;;;;;;5.28;82.19;97153.25;1688164;82;21010;-78
2021/11/12 04:02:30;;;;;;;50.08;32.13;;;;;;;5.26;81.89;97147.41;1705856;83;20948;-78
2021/11/12 04:05:07;;;;;;;47.93;30.85;;;;;;;5.24;81.85;97148.02;1708853;83;21034;-78
2021/11/12 04:18:16;;;;;;;41.85;27.65;;;;;;;5.06;82.05;97152.15;1754010;81;21074;-78
2021/11/12 04:20:57;;;;;;;48.65;30.68;;;;;;;5.06;82.30;97151.67;1739844;81;21037;-78
2021/11/12 05:44:19;;;;;;;36.42;22.13;;;;;;;5.45;81.58;97176.78;1771876;81;21348;-78
2021/11/12 05:57:09;;;;;;;49.53;31.90;;;;;;;5.35;81.56;97192.19;1764596;81;21007;-78
2021/11/12 05:59:36;;;;;;;45.90;30.82;;;;;;;5.30;81.53;97199.03;1752983;81;21046;-78
2021/11/12 06:02:04;;;;;;;51.83;33.30;;;;;;;5.33;81.66;97198.77;1754395;81;20947;-78
2021/11/12 06:04:30;;;;;;;48.30;32.38;;;;;;;5.37;81.51;97195.48;1753260;81;20999;-78
2021/11/12 06:06:56;;;;;;;51.77;32.63;;;;;;;5.40;81.74;97196.03;1757512;81;20971;-78
2021/11/12 06:09:23;;;;;;;50.43;33.50;;;;;;;5.45;81.65;97194.81;1770770;81;21360;-79
2021/11/12 06:11:53;;;;;;;41.63;27.77;;;;;;;5.40;81.56;97197.31;1748302;81;21059;-78
2021/11/12 06:14:18;;;;;;;36.05;23.07;;;;;;;5.36;81.52;97195.92;1752269;81;20967;-78
2021/11/12 06:16:44;;;;;;;35.48;23.35;;;;;;;5.37;81.28;97203.21;1763180;80;20955;-78
2021/11/12 06:19:09;;;;;;;36.85;24.45;;;;;;;5.43;81.27;97206.08;1771746;81;21028;-78
2021/11/12 06:21:35;;;;;;;34.60;23.20;;;;;;;5.46;81.29;97201.13;1761210;81;20982;-78
2021/11/12 06:24:01;;;;;;;37.67;26.37;;;;;;;5.42;81.10;97198.00;1770009;81;20968;-78
2021/11/12 06:26:27;;;;;;;38.13;24.45;;;;;;;5.41;81.18;97205.86;1745692;81;21011;-78
2021/11/12 06:28:53;;;;;;;36.93;24.57;;;;;;;5.37;81.28;97200.63;1766365;81;20987;-78
2021/11/12 06:31:20;;;;;;;37.25;23.27;;;;;;;5.33;81.20;97207.78;1751460;81;21230;-81
2021/11/12 06:33:49;;;;;;;27.67;20.12;;;;;;;5.34;81.28;97211.17;1750778;81;21076;-79
2021/11/12 06:36:17;;;;;;;32.20;22.90;;;;;;;5.29;80.94;97206.41;1762174;81;21087;-78
2021/11/12 06:38:42;;;;;;;32.78;21.00;;;;;;;5.26;81.07;97213.12;1730184;81;21360;-81
2021/11/12 06:41:11;;;;;;;31.23;21.37;;;;;;;5.28;81.18;97213.80;1750070;81;21029;-79
2021/11/12 06:43:48;;;;;;;30.72;21.30;;;;;;;5.32;81.15;97217.75;1763470;81;21057;-78
2021/11/12 06:51:34;;;;;;;35.25;22.93;;;;;;;5.34;81.30;97218.43;1761358;81;20982;-80
2021/11/12 06:54:00;;;;;;;33.67;22.62;;;;;;;5.38;81.32;97221.59;1765113;81;21051;-78
2021/11/12 06:56:26;;;;;;;33.63;21.05;;;;;;;5.43;81.19;97219.44;1726291;81;21417;-79
2021/11/12 06:58:52;;;;;;;30.00;20.25;;;;;;;5.45;80.88;97216.25;1753011;81;20964;-78
2021/11/12 07:01:18;;;;;;;30.25;20.57;;;;;;;5.47;80.79;97218.23;1760224;80;20995;-79
2021/11/12 07:03:44;;;;;;;31.75;20.25;;;;;;;5.45;80.94;97214.97;1766549;81;21388;-79
2021/11/12 07:06:11;;;;;;;33.35;21.42;;;;;;;5.50;81.13;97214.09;1755359;81;20954;-79
2021/11/12 07:08:37;;;;;;;32.90;21.23;;;;;;;5.50;81.06;97213.28;1757984;80;21361;-78
2021/11/12 07:11:03;;;;;;;29.30;19.95;;;;;;;5.51;81.04;97215.72;1764410;81;21036;-79
2021/11/12 07:13:30;;;;;;;28.30;18.57;;;;;;;5.51;80.76;97217.02;1766449;81;21039;-78
2021/11/12 07:15:57;;;;;;;30.80;22.02;;;;;;;5.48;80.43;97222.43;1762424;80;20940;-78
2021/11/12 07:18:26;;;;;;;30.20;21.52;;;;;;;5.45;80.34;97220.12;1748777;80;21035;-78
2021/11/12 07:20:52;;;;;;;31.20;20.82;;;;;;;5.49;80.29;97229.22;1753645;80;20965;-78
2021/11/12 07:23:19;;;;;;;28.25;20.20;;;;;;;5.54;80.30;97228.38;1761403;80;21011;-78
2021/11/12 07:25:45;;;;;;;34.65;23.05;;;;;;;5.57;80.34;97236.32;1750535;81;21369;-78
2021/11/12 07:28:11;;;;;;;41.37;30.37;;;;;;;5.57;80.63;97235.03;1763377;81;20978;-79
2021/11/12 07:30:41;;;;;;;47.73;31.57;;;;;;;5.50;80.64;97228.27;1752903;81;20959;-79
2021/11/12 07:33:05;;;;;;;51.37;31.23;;;;;;;5.47;80.68;97225.14;1773833;81;20982;-79
2021/11/12 07:35:39;;;;;;;51.00;31.75;;;;;;;5.49;80.84;97222.77;1758271;81;21404;-81
2021/11/12 07:38:09;;;;;;;47.83;30.85;;;;;;;5.54;80.80;97217.25;1752731;81;21360;-81
2021/11/12 07:40:49;;;;;;;48.50;31.50;;;;;;;5.58;80.74;97219.91;1751924;81;21054;-81
2021/11/12 07:48:01;;;;;;;42.95;28.70;;;;;;;5.68;80.74;97213.00;1766679;81;20983;-83
2021/11/12 07:50:27;;;;;;;31.45;20.23;;;;;;;5.66;80.56;97209.74;1764067;81;21022;-81
2021/11/12 07:52:53;;;;;;;34.33;24.27;;;;;;;5.64;80.42;97213.74;1767833;79;20946;-81
2021/11/12 07:55:18;;;;;;;27.13;18.70;;;;;;;5.65;80.32;97207.64;1766314;81;21429;-81
2021/11/12 07:57:44;;;;;;;27.65;20.00;;;;;;;5.59;80.06;97199.62;1772813;81;20966;-81
2021/11/12 08:00:11;;;;;;;26.23;17.57;;;;;;;5.49;80.02;97207.31;1770835;81;21250;-81
2021/11/12 08:02:38;;;;;;;29.82;19.07;;;;;;;5.46;80.11;97203.70;1787702;80;21066;-81
2021/11/12 08:05:13;;;;;;;28.90;19.42;;;;;;;5.48;80.39;97203.58;1769884;80;21484;-81
2021/11/12 08:07:35;;;;;;;32.75;20.12;;;;;;;5.51;80.42;97208.47;1764458;81;21351;-81
2021/11/12 08:10:04;;;;;;;30.70;20.27;;;;;;;5.53;80.46;97198.39;1762291;81;21076;-81
2021/11/12 08:12:34;;;;;;;34.90;23.98;;;;;;;5.56;80.33;97194.73;1778898;80;21110;-81
2021/11/12 08:15:29;;;;;;;33.10;22.05;;;;;;;5.52;80.21;97197.20;1794676;80;21043;-81
2021/11/12 08:20:29;;;;;;;30.02;20.30;;;;;;;5.58;80.27;97201.86;1764347;81;21047;-82
2021/11/12 08:22:59;;;;;;;27.80;19.50;;;;;;;5.57;80.16;97201.52;1793399;80;21037;-81
2021/11/12 08:25:25;;;;;;;27.52;19.07;;;;;;;5.59;80.26;97195.75;1796822;80;20992;-81
2021/11/12 08:48:41;;;;;;;45.88;27.02;;;;;;;5.84;80.89;97177.22;1787994;78;21024;-82
2021/11/12 08:51:07;;;;;;;47.03;27.07;;;;;;;5.87;80.84;97183.42;1795873;78;20992;-81
2021/11/12 08:53:32;;;;;;;48.73;29.10;;;;;;;5.90;80.76;97183.19;1769551;80;21027;-81
2021/11/12 08:55:57;;;;;;;43.78;27.90;;;;;;;5.93;80.51;97178.23;1766073;81;20920;-81
2021/11/12 08:58:23;;;;;;;46.18;29.40;;;;;;;5.92;80.10;97169.67;1760727;80;21050;-82
2021/11/12 09:00:50;;;;;;;49.23;29.87;;;;;;;5.91;80.44;97164.66;1756838;80;21033;-81
2021/11/12 09:03:16;;;;;;;47.23;29.67;;;;;;;5.90;80.58;97163.84;1751735;81;21569;-81
2021/11/12 09:05:42;;;;;;;47.20;27.07;;;;;;;5.90;80.34;97169.47;1762486;80;21050;-81
2021/11/12 09:08:08;;;;;;;50.15;28.75;;;;;;;5.88;80.31;97165.70;1763055;81;20997;-81
2021/11/12 09:10:34;;;;;;;48.15;30.12;;;;;;;5.91;80.55;97166.75;1714818;81;20984;-81
2021/11/12 09:13:18;;;;;;;52.83;31.30;;;;;;;5.98;80.33;97156.70;1763319;81;20962;-82
2021/11/12 09:15:40;;;;;;;51.77;30.35;;;;;;;6.02;80.11;97160.67;1784668;80;21038;-81
2021/11/12 09:18:06;;;;;;;47.75;30.45;;;;;;;6.00;79.86;97158.20;1785649;80;21039;-81
2021/11/12 09:20:32;;;;;;;50.80;31.62;;;;;;;5.93;79.58;97156.30;1763243;81;21010;-81
2021/11/12 09:22:59;;;;;;;45.60;28.90;;;;;;;5.84;79.83;97151.42;1768318;80;21048;-81
2021/11/12 09:25:25;;;;;;;49.15;32.53;;;;;;;5.84;80.23;97155.30;1767839;79;21317;-81
2021/11/12 09:27:51;;;;;;;50.88;31.37;;;;;;;5.86;80.03;97152.13;1769588;78;21087;-81
2021/11/12 09:30:23;;;;;;;50.83;29.80;;;;;;;5.90;80.09;97156.58;1771856;80;21421;-81
2021/11/12 09:32:54;;;;;;;48.20;29.02;;;;;;;5.91;79.95;97155.15;1795405;80;20962;-82
2021/11/12 09:35:21;;;;;;;48.90;31.17;;;;;;;5.94;79.84;97154.06;1748062;81;20975;-81
2021/11/12 09:37:46;;;;;;;50.80;30.48;;;;;;;5.90;79.95;97145.78;1773957;80;20991;-81
2021/11/12 09:40:12;;;;;;;54.23;31.73;;;;;;;5.95;80.10;97145.38;1762150;80;20936;-81
2021/11/12 09:42:38;;;;;;;51.23;31.42;;;;;;;5.98;80.01;97145.91;1768239;80;21011;-81
2021/11/12 09:45:10;;;;;;;61.98;36.53;;;;;;;6.00;80.01;97136.75;1740907;81;21019;-81
2021/11/12 09:47:37;;;;;;;112.28;58.95;;;;;;;6.00;79.76;97135.45;1768777;80;21038;-81
2021/11/12 09:50:07;;;;;;;131.25;69.50;;;;;;;6.04;79.78;97138.13;1762271;81;20978;-81
2021/11/12 09:52:33;;;;;;;60.33;36.83;;;;;;;6.06;79.73;97132.36;1765197;81;20989;-81
2021/11/12 09:54:59;;;;;;;91.87;54.35;;;;;;;6.09;79.80;97135.14;1775855;81;21475;-81
2021/11/12 09:57:25;;;;;;;93.17;57.30;;;;;;;6.12;79.81;97133.09;1765312;81;21082;-81
2021/11/12 09:59:55;;;;;;;78.78;48.02;;;;;;;6.19;80.03;97129.04;1773633;81;21002;-81
2021/11/12 10:02:21;;;;;;;53.25;32.33;;;;;;;6.24;80.06;97120.41;1756521;81;21403;-81
2021/11/12 10:04:47;;;;;;;55.17;34.83;;;;;;;6.25;79.89;97117.34;1768280;80;20994;-81
2021/11/12 10:07:15;;;;;;;68.90;46.98;;;;;;;6.24;79.60;97111.84;1758175;81;21021;-82
2021/11/12 10:09:44;;;;;;;61.77;41.48;;;;;;;6.26;79.76;97118.50;1769313;79;21108;-81
2021/11/12 10:12:11;;;;;;;46.80;30.60;;;;;;;6.32;79.56;97111.96;1765383;81;22076;-81
2021/11/12 10:14:52;;;;;;;49.53;31.23;;;;;;;6.32;79.15;97107.61;1760849;80;20987;-82
2021/11/12 10:17:20;;;;;;;49.98;31.57;;;;;;;6.30;79.10;97094.03;1757548;81;21471;-83
2021/11/12 10:19:49;;;;;;;60.23;38.25;;;;;;;6.31;79.28;97092.27;1759843;81;21627;-81
2021/11/12 10:22:17;;;;;;;57.50;37.08;;;;;;;6.32;79.45;97096.00;1765135;80;21053;-81
2021/11/12 10:24:43;;;;;;;101.87;71.10;;;;;;;6.34;79.32;97093.28;1761937;80;21460;-82
2021/11/12 10:27:16;;;;;;;124.27;81.65;;;;;;;6.36;79.04;97091.88;1745151;81;21068;-82
2021/11/12 10:29:47;;;;;;;59.53;37.88;;;;;;;6.30;78.78;97079.84;1761140;80;21061;-81
2021/11/12 10:32:18;;;;;;;120.57;72.67;;;;;;;6.26;78.88;97082.84;1749989;81;20964;-82
2021/11/12 10:34:45;;;;;;;57.83;35.80;;;;;;;6.28;79.09;97082.22;1758312;81;21330;-81
2021/11/12 10:37:19;;;;;;;53.58;33.20;;;;;;;6.26;78.78;97077.20;1771496;81;20993;-81
2021/11/12 10:39:49;;;;;;;53.60;32.53;;;;;;;6.24;78.85;97073.13;1764751;80;20957;-81
2021/11/12 10:42:22;;;;;;;53.40;32.73;;;;;;;6.21;78.45;97081.16;1754338;81;21510;-81
2021/11/12 10:44:52;;;;;;;57.88;36.40;;;;;;;6.11;78.78;97072.13;1754150;81;21128;-81
2021/11/12 10:47:20;;;;;;;52.03;34.85;;;;;;;6.18;79.18;97065.48;1753168;80;21042;-81
2021/11/12 10:49:48;;;;;;;67.47;40.78;;;;;;;6.20;78.78;97066.63;1752309;81;21073;-81
2021/11/12 10:52:18;;;;;;;110.50;71.40;;;;;;;6.19;78.96;97065.00;1748769;81;21031;-81
2021/11/12 10:57:14;;;;;;;105.85;69.55;;;;;;;6.17;78.67;97063.01;1759822;81;21013;-81
2021/11/12 11:00:13;;;;;;;119.28;77.97;;;;;;;6.12;79.04;97062.62;1760612;80;20973;-81
2021/11/12 11:02:52;;;;;;;60.83;35.13;;;;;;;6.18;79.70;97059.03;1752846;81;22115;-81
2021/11/12 11:05:35;;;;;;;47.90;30.12;;;;;;;6.29;79.17;97054.17;1746107;81;21116;-81
2021/11/12 11:08:07;;;;;;;49.30;31.10;;;;;;;6.36;79.06;97051.39;1757756;81;21041;-81
2021/11/12 11:10:37;;;;;;;83.72;49.93;;;;;;;6.42;79.32;97049.53;1762464;81;21026;-81
2021/11/12 11:13:09;;;;;;;66.60;41.15;;;;;;;6.46;78.85;97043.13;1751584;81;21025;-81
2021/11/12 11:15:47;;;;;;;139.00;86.12;;;;;;;6.45;78.73;97040.21;1749021;80;20985;-81
2021/11/12 11:18:44;;;;;;;140.20;84.45;;;;;;;6.43;79.25;97043.41;1762114;80;20997;-81
2021/11/12 11:24:02;;;;;;;52.03;34.08;;;;;;;6.44;79.23;97045.52;1753011;81;21090;-81
2021/11/12 11:26:46;;;;;;;76.97;48.60;;;;;;;6.46;78.87;97039.26;1761642;81;21473;-81
2021/11/12 11:29:15;;;;;;;52.43;33.18;;;;;;;6.54;79.02;97034.70;1741774;81;21400;-80
2021/11/12 11:31:41;;;;;;;58.17;39.20;;;;;;;6.57;79.01;97033.94;1742321;81;21389;-81
2021/11/12 11:34:07;;;;;;;131.35;92.80;;;;;;;6.62;78.93;97036.90;1765655;81;21093;-78
2021/11/12 11:36:36;;;;;;;60.83;39.70;;;;;;;6.65;79.06;97031.92;1753339;80;21066;-78
2021/11/12 11:39:05;;;;;;;53.35;32.80;;;;;;;6.65;78.75;97025.47;1741856;81;20954;-78
2021/11/12 11:41:32;;;;;;;45.78;30.80;;;;;;;6.64;78.84;97026.42;1746761;80;21097;-78
2021/11/12 11:43:58;;;;;;;173.93;104.87;;;;;;;6.65;78.55;97027.23;1765392;81;21034;-79
2021/11/12 11:46:30;;;;;;;52.98;34.20;;;;;;;6.68;78.83;97021.34;1758829;80;21093;-79
2021/11/12 11:48:58;;;;;;;62.78;39.20;;;;;;;6.74;78.47;97020.76;1742511;81;21021;-78
2021/11/12 11:51:34;;;;;;;47.23;31.87;;;;;;;6.66;77.98;97027.58;1756864;81;21078;-78
2021/11/12 11:54:11;;;;;;;44.63;29.60;;;;;;;6.58;78.03;97021.84;1758510;80;21010;-78
2021/11/12 11:56:44;;;;;;;44.40;29.35;;;;;;;6.57;78.00;97017.16;1758945;81;20969;-79
2021/11/12 11:59:17;;;;;;;47.27;29.63;;;;;;;6.54;78.33;97014.05;1772573;81;21025;-79
2021/11/12 12:01:57;;;;;;;58.50;37.35;;;;;;;6.50;78.40;97017.84;1760149;81;21001;-78
2021/11/12 12:04:34;;;;;;;68.15;43.73;;;;;;;6.51;78.24;97011.75;1720722;81;21002;-79
2021/11/12 12:07:15;;;;;;;69.92;46.05;;;;;;;6.49;78.59;97005.41;1756262;81;21014;-79
2021/11/12 12:09:52;;;;;;;50.92;32.88;;;;;;;6.56;78.75;97007.78;1758943;81;21430;-78
2021/11/12 12:12:36;;;;;;;140.30;83.10;;;;;;;6.63;78.77;96999.79;1764487;81;21111;-79
2021/11/12 12:15:15;;;;;;;56.58;37.53;;;;;;;6.71;78.77;97004.74;1768279;81;20970;-78
2021/11/12 12:17:44;;;;;;;50.20;35.10;;;;;;;6.67;78.26;97000.80;1755277;80;21033;-81
2021/11/12 12:20:31;;;;;;;180.80;102.10;;;;;;;6.65;78.28;96995.77;1714906;81;20943;-80
2021/11/12 13:23:04;;;;;;;59.33;37.98;;;;;;;6.49;78.23;96958.13;1726749;82;21023;-83
2021/11/12 13:25:54;;;;;;;51.15;35.25;;;;;;;6.44;78.37;96950.00;1727152;82;21380;-81
2021/11/12 13:28:28;;;;;;;64.62;41.33;;;;;;;6.43;78.55;96953.06;1739717;82;21020;-83
2021/11/12 13:31:08;;;;;;;61.33;40.45;;;;;;;6.42;78.79;96946.75;1752221;81;21353;-82
2021/11/12 13:33:42;;;;;;;56.98;36.38;;;;;;;6.41;78.84;96949.00;1711789;83;21049;-81
2021/11/12 13:36:28;;;;;;;61.18;38.83;;;;;;;6.38;78.86;96953.98;1724472;83;21008;-81
2021/11/12 13:39:17;;;;;;;89.07;55.88;;;;;;;6.42;79.04;96955.31;1730463;83;21479;-83
2021/11/12 13:41:42;;;;;;;62.85;40.45;;;;;;;6.49;79.10;96962.00;1717556;83;21444;-82
2021/11/12 13:44:15;;;;;;;53.83;35.63;;;;;;;6.42;78.90;96955.79;1722883;81;21027;-81
2021/11/12 13:46:57;;;;;;;58.78;37.58;;;;;;;6.33;78.62;96951.80;1722259;82;20998;-82
2021/11/12 13:49:34;;;;;;;61.80;40.17;;;;;;;6.19;78.90;96956.62;1713346;83;20969;-83
2021/11/12 13:52:04;;;;;;;58.20;39.23;;;;;;;6.04;79.01;96956.25;1706842;83;21357;-81
2021/11/12 13:54:34;;;;;;;59.50;40.45;;;;;;;5.98;79.33;96955.02;1702073;83;21046;-81
2021/11/12 13:57:07;;;;;;;61.25;41.10;;;;;;;5.92;79.21;96949.14;1724338;83;21347;-81
2021/11/12 13:59:33;;;;;;;62.38;41.35;;;;;;;5.92;79.61;96943.98;1726864;83;20984;-82
2021/11/12 14:02:01;;;;;;;61.68;40.90;;;;;;;5.96;79.80;96946.61;1703174;84;20995;-82
2021/11/12 14:04:30;;;;;;;58.92;37.73;;;;;;;6.00;79.90;96941.50;1741425;82;21094;-82
2021/11/12 14:06:56;;;;;;;61.50;41.02;;;;;;;6.03;79.89;96942.20;1723369;83;21030;-83
2021/11/12 14:09:25;;;;;;;60.35;39.58;;;;;;;6.05;79.68;96939.00;1728461;82;20991;-82
2021/11/12 14:12:11;;;;;;;64.25;39.05;;;;;;;6.04;79.55;96939.48;1746768;80;21436;-83
2021/11/12 14:14:38;;;;;;;63.00;39.70;;;;;;;6.10;79.60;96938.91;1772596;81;21368;-82
2021/11/12 14:17:21;;;;;;;61.02;37.83;;;;;;;6.18;79.68;96922.72;1751354;81;20959;-81
2021/11/12 14:19:59;;;;;;;56.18;36.55;;;;;;;6.12;79.32;96925.87;1778158;78;21257;-82
2021/11/12 14:22:45;;;;;;;61.25;39.88;;;;;;;6.06;79.41;96932.89;1768653;80;21075;-81
2021/11/12 14:25:17;;;;;;;61.45;40.95;;;;;;;6.03;79.80;96930.12;1740357;81;20976;-81
2021/11/12 14:27:58;;;;;;;61.25;39.90;;;;;;;6.03;79.82;96930.12;1747720;81;21103;-81
2021/11/12 14:35:54;;;;;;;65.17;39.67;;;;;;;5.95;79.75;96924.83;1766585;81;21400;-81
2021/11/12 14:49:17;;;;;;;61.02;39.18;;;;;;;5.86;80.04;96922.59;1766730;81;21096;-83
2021/11/12 14:52:05;;;;;;;64.58;39.60;;;;;;;5.82;80.14;96921.22;1746764;80;21002;-82
2021/11/12 14:54:43;;;;;;;65.87;39.83;;;;;;;5.76;79.98;96925.66;1742970;81;20991;-81
2021/11/12 14:57:23;;;;;;;63.45;38.63;;;;;;;5.76;80.01;96916.63;1763993;81;21051;-81
2021/11/12 14:59:40;;;;;;;62.25;39.42;;;;;;;5.74;80.16;96909.52;1759271;81;21065;-81
2021/11/12 15:02:08;;;;;;;61.45;38.20;;;;;;;5.73;80.16;96911.28;1754999;81;20989;-81
2021/11/12 15:04:35;;;;;;;64.82;41.10;;;;;;;5.76;80.37;96915.81;1755647;81;21078;-81
2021/11/12 15:07:00;;;;;;;66.97;41.60;;;;;;;5.72;80.30;96910.94;1755769;81;20947;-81
2021/11/12 15:09:32;;;;;;;61.65;37.67;;;;;;;5.67;80.59;96909.70;1758926;81;20994;-81
2021/11/12 15:11:54;;;;;;;64.92;40.90;;;;;;;5.64;80.55;96915.14;1773631;80;22713;-80
2021/11/12 15:14:29;;;;;;;72.08;44.83;;;;;;;5.53;80.37;96913.55;1762329;81;21022;-80
2021/11/12 15:16:51;;;;;;;60.43;37.30;;;;;;;5.48;80.58;96920.05;1755200;81;21361;-80
2021/11/12 15:19:18;;;;;;;61.13;39.92;;;;;;;5.41;80.71;96915.45;1747830;81;20975;-80
2021/11/12 15:29:37;;;;;;;75.90;44.77;;;;;;;5.42;81.24;96913.20;1688547;82;21000;-81
2021/11/12 15:34:28;;;;;;;74.35;46.48;;;;;;;5.43;81.39;96901.95;1758870;81;21015;-80
2021/11/12 15:37:05;;;;;;;69.90;44.75;;;;;;;5.47;81.26;96908.11;1754715;81;21069;-81
2021/11/12 15:39:37;;;;;;;72.17;46.02;;;;;;;5.48;81.29;96898.14;1735702;81;20987;-80
2021/11/12 15:44:28;;;;;;;73.78;44.75;;;;;;;5.47;81.34;96897.80;1756684;80;21045;-81
2021/11/12 15:47:04;;;;;;;73.52;44.33;;;;;;;5.46;81.37;96896.98;1747305;81;20996;-81
2021/11/12 15:49:24;;;;;;;64.67;41.70;;;;;;;5.48;81.46;96897.66;1753518;80;21007;-81
2021/11/12 15:52:03;;;;;;;70.30;45.83;;;;;;;5.51;81.45;96903.83;1768565;81;20959;-81
2021/11/12 15:54:48;;;;;;;70.32;43.98;;;;;;;5.52;81.30;96903.34;1748553;82;21010;-81
2021/11/12 16:02:36;;;;;;;67.03;43.58;;;;;;;5.54;81.39;96902.77;1769435;80;20951;-81
2021/11/12 16:15:34;;;;;;;101.92;57.67;;;;;;;5.67;81.65;96905.37;1751905;81;22042;-81
2021/11/12 16:20:23;;;;;;;77.12;47.35;;;;;;;5.74;81.42;96909.52;1751758;81;21367;-81
2021/11/12 16:25:16;;;;;;;101.72;55.28;;;;;;;5.77;81.25;96913.58;1762056;81;21376;-81
2021/11/12 16:27:48;;;;;;;191.85;92.55;;;;;;;5.77;81.40;96904.55;1739423;80;20951;-81
2021/11/12 16:30:17;;;;;;;116.67;74.80;;;;;;;5.73;81.34;96908.70;1784015;80;20976;-82
2021/11/12 16:32:45;;;;;;;136.85;66.02;;;;;;;5.64;81.17;96908.70;1740897;81;21071;-81
2021/11/12 16:35:19;;;;;;;197.45;83.05;;;;;;;5.54;81.15;96907.44;1762619;80;21039;-80
2021/11/12 16:37:46;;;;;;;116.47;58.28;;;;;;;5.51;81.32;96912.03;1792873;80;20969;-80
2021/11/12 16:47:50;;;;;;;77.15;45.50;;;;;;;5.32;81.71;96913.67;1792675;78;21100;-81
2021/11/12 16:52:48;;;;;;;79.77;53.85;;;;;;;5.19;81.70;96915.70;1794984;78;21408;-79
2021/11/12 17:03:25;;;;;;;136.97;65.70;;;;;;;5.24;82.32;96909.69;1765960;80;21067;-78
2021/11/12 17:05:54;;;;;;;90.65;50.63;;;;;;;5.32;82.23;96914.97;1749644;80;21067;-81
2021/11/12 17:08:38;;;;;;;;;;;;;;;5.36;82.16;96924.04;1764346;80;21067;-79
2021/11/12 17:16:22;;;;;;;69.62;39.75;;;;;;;5.38;81.96;96917.49;1762146;80;21084;-78
2021/11/12 17:45:51;;;;;;;69.58;43.28;;;;;;;5.33;81.62;96921.74;1747552;80;21102;-78
2021/11/12 17:48:19;;;;;;;67.10;40.80;;;;;;;5.32;81.70;96924.45;1735780;81;21377;-78